sensor_id;sensor_type;location;lat;lon;timestamp;temperature;humidity
10873;DHT22;34586;53.616;10.032;2022-11-04T00:01:45;10.90;48.70
10873;DHT22;34586;53.616;10.032;2022-11-04T00:04:12;11.00;54.30
10873;DHT22;34586;53.616;10.032;2022-11-04T00:06:39;11.00;66.70
10873;DHT22;34586;53.616;10.032;2022-11-04T00:09:07;11.00;82.40
10873;DHT22;34586;53.616;10.032;2022-11-04T00:11:33;10.90;90.30
10873;DHT22;34586;53.616;10.032;2022-11-04T00:14:18;10.90;94.90
10873;DHT22;34586;53.616;10.032;2022-11-04T00:16:44;10.90;99.90
10873;DHT22;34586;53.616;10.032;2022-11-04T00:19:28;10.90;99.90
10873;DHT22;34586;53.616;10.032;2022-11-04T00:22:14;10.80;99.90
10873;DHT22;34586;53.616;10.032;2022-11-04T00:24:59;11.00;99.90
10873;DHT22;34586;53.616;10.032;2022-11-04T00:27:44;10.90;99.90
10873;DHT22;34586;53.616;10.032;2022-11-04T00:30:29;10.90;99.90
10873;DHT22;34586;53.616;10.032;2022-11-04T00:32:54;11.00;99.90
10873;DHT22;34586;53.616;10.032;2022-11-04T00:35:39;11.00;99.90
10873;DHT22;34586;53.616;10.032;2022-11-04T00:38:05;10.90;99.90
10873;DHT22;34586;53.616;10.032;2022-11-04T00:40:31;10.90;99.90
10873;DHT22;34586;53.616;10.032;2022-11-04T00:42:57;10.90;99.90
10873;DHT22;34586;53.616;10.032;2022-11-04T00:45:22;10.90;99.90
10873;DHT22;34586;53.616;10.032;2022-11-04T00:47:48;10.90;99.90
10873;DHT22;34586;53.616;10.032;2022-11-04T00:50:13;10.90;99.90
10873;DHT22;34586;53.616;10.032;2022-11-04T00:52:39;10.90;99.90
10873;DHT22;34586;53.616;10.032;2022-11-04T00:55:05;10.90;99.90
10873;DHT22;34586;53.616;10.032;2022-11-04T00:57:31;10.90;99.90
10873;DHT22;34586;53.616;10.032;2022-11-04T00:59:57;10.90;99.90
10873;DHT22;34586;53.616;10.032;2022-11-04T01:02:22;10.90;99.90
10873;DHT22;34586;53.616;10.032;2022-11-04T01:04:48;10.90;99.90
10873;DHT22;34586;53.616;10.032;2022-11-04T01:07:13;11.00;99.90
10873;DHT22;34586;53.616;10.032;2022-11-04T01:09:39;11.00;99.90
10873;DHT22;34586;53.616;10.032;2022-11-04T01:12:04;11.00;99.90
10873;DHT22;34586;53.616;10.032;2022-11-04T01:14:30;11.00;99.90
10873;DHT22;34586;53.616;10.032;2022-11-04T01:16:56;11.00;99.90
10873;DHT22;34586;53.616;10.032;2022-11-04T01:19:21;11.00;99.90
10873;DHT22;34586;53.616;10.032;2022-11-04T01:21:50;11.10;99.90
10873;DHT22;34586;53.616;10.032;2022-11-04T01:24:16;11.00;99.90
10873;DHT22;34586;53.616;10.032;2022-11-04T01:26:41;11.10;99.90
10873;DHT22;34586;53.616;10.032;2022-11-04T01:29:07;11.10;99.90
10873;DHT22;34586;53.616;10.032;2022-11-04T01:31:32;11.10;99.90
10873;DHT22;34586;53.616;10.032;2022-11-04T01:33:59;11.10;99.90
10873;DHT22;34586;53.616;10.032;2022-11-04T01:36:26;11.10;99.90
10873;DHT22;34586;53.616;10.032;2022-11-04T01:38:54;11.10;99.90
10873;DHT22;34586;53.616;10.032;2022-11-04T01:41:24;11.10;99.90
10873;DHT22;34586;53.616;10.032;2022-11-04T01:44:03;10.90;99.90
10873;DHT22;34586;53.616;10.032;2022-11-04T01:46:41;11.00;99.90
10873;DHT22;34586;53.616;10.032;2022-11-04T01:49:24;11.10;99.90
10873;DHT22;34586;53.616;10.032;2022-11-04T01:51:55;11.00;99.90
10873;DHT22;34586;53.616;10.032;2022-11-04T01:54:24;11.00;99.90
10873;DHT22;34586;53.616;10.032;2022-11-04T01:56:49;11.10;99.90
10873;DHT22;34586;53.616;10.032;2022-11-04T01:59:20;11.10;99.90
10873;DHT22;34586;53.616;10.032;2022-11-04T02:01:47;11.10;99.90
10873;DHT22;34586;53.616;10.032;2022-11-04T02:04:13;11.10;99.90
10873;DHT22;34586;53.616;10.032;2022-11-04T02:06:57;11.00;99.90
10873;DHT22;34586;53.616;10.032;2022-11-04T02:09:29;11.10;99.90
10873;DHT22;34586;53.616;10.032;2022-11-04T02:11:55;11.10;99.90
10873;DHT22;34586;53.616;10.032;2022-11-04T02:14:39;11.10;99.90
10873;DHT22;34586;53.616;10.032;2022-11-04T02:31:07;11.10;99.90
10873;DHT22;34586;53.616;10.032;2022-11-04T02:33:47;11.10;99.90
10873;DHT22;34586;53.616;10.032;2022-11-04T02:42:43;11.10;99.90
10873;DHT22;34586;53.616;10.032;2022-11-04T02:45:16;11.00;99.90
10873;DHT22;34586;53.616;10.032;2022-11-04T02:47:51;11.10;99.90
10873;DHT22;34586;53.616;10.032;2022-11-04T02:50:55;11.10;99.90
10873;DHT22;34586;53.616;10.032;2022-11-04T02:53:34;11.10;99.90
10873;DHT22;34586;53.616;10.032;2022-11-04T02:56:04;11.10;99.90
10873;DHT22;34586;53.616;10.032;2022-11-04T02:58:34;11.10;99.90
10873;DHT22;34586;53.616;10.032;2022-11-04T03:01:02;11.10;99.90
10873;DHT22;34586;53.616;10.032;2022-11-04T03:03:34;11.10;99.90
10873;DHT22;34586;53.616;10.032;2022-11-04T03:06:03;11.10;99.90
10873;DHT22;34586;53.616;10.032;2022-11-04T03:08:34;11.00;99.90
10873;DHT22;34586;53.616;10.032;2022-11-04T03:11:18;11.00;99.90
10873;DHT22;34586;53.616;10.032;2022-11-04T03:13:49;11.00;99.90
10873;DHT22;34586;53.616;10.032;2022-11-04T03:16:35;11.00;99.90
10873;DHT22;34586;53.616;10.032;2022-11-04T03:22:01;11.00;99.90
10873;DHT22;34586;53.616;10.032;2022-11-04T03:24:29;11.00;99.90
10873;DHT22;34586;53.616;10.032;2022-11-04T03:27:02;11.00;99.90
10873;DHT22;34586;53.616;10.032;2022-11-04T03:29:34;11.00;99.90
10873;DHT22;34586;53.616;10.032;2022-11-04T03:34:36;11.00;99.90
10873;DHT22;34586;53.616;10.032;2022-11-04T03:37:03;11.00;99.90
10873;DHT22;34586;53.616;10.032;2022-11-04T03:39:29;11.00;99.90
10873;DHT22;34586;53.616;10.032;2022-11-04T03:41:56;11.50;99.90
10873;DHT22;34586;53.616;10.032;2022-11-04T03:44:23;11.00;99.90
10873;DHT22;34586;53.616;10.032;2022-11-04T03:46:53;11.10;99.90
10873;DHT22;34586;53.616;10.032;2022-11-04T03:49:20;11.10;99.90
10873;DHT22;34586;53.616;10.032;2022-11-04T03:51:47;11.20;99.90
10873;DHT22;34586;53.616;10.032;2022-11-04T03:54:13;11.20;99.90
10873;DHT22;34586;53.616;10.032;2022-11-04T03:56:58;11.20;99.90
10873;DHT22;34586;53.616;10.032;2022-11-04T04:02:21;11.30;99.90
10873;DHT22;34586;53.616;10.032;2022-11-04T04:05:04;11.30;99.90
10873;DHT22;34586;53.616;10.032;2022-11-04T04:07:37;11.30;99.90
10873;DHT22;34586;53.616;10.032;2022-11-04T04:10:20;11.30;99.90
10873;DHT22;34586;53.616;10.032;2022-11-04T04:15:58;11.30;99.90
10873;DHT22;34586;53.616;10.032;2022-11-04T04:18:33;11.30;99.90
10873;DHT22;34586;53.616;10.032;2022-11-04T04:21:05;11.30;99.90
10873;DHT22;34586;53.616;10.032;2022-11-04T04:23:34;11.30;99.90
10873;DHT22;34586;53.616;10.032;2022-11-04T04:26:21;11.30;99.90
10873;DHT22;34586;53.616;10.032;2022-11-04T04:29:06;11.60;99.90
10873;DHT22;34586;53.616;10.032;2022-11-04T04:31:36;11.40;99.90
10873;DHT22;34586;53.616;10.032;2022-11-04T04:34:21;11.50;99.90
10873;DHT22;34586;53.616;10.032;2022-11-04T04:36:57;11.50;99.90
10873;DHT22;34586;53.616;10.032;2022-11-04T04:39:28;11.50;99.90
10873;DHT22;34586;53.616;10.032;2022-11-04T04:42:15;11.50;99.90
10873;DHT22;34586;53.616;10.032;2022-11-04T04:45:01;11.50;99.90
10873;DHT22;34586;53.616;10.032;2022-11-04T04:47:42;11.50;99.90
10873;DHT22;34586;53.616;10.032;2022-11-04T04:50:12;11.60;99.90
10873;DHT22;34586;53.616;10.032;2022-11-04T04:52:41;11.60;99.90
10873;DHT22;34586;53.616;10.032;2022-11-04T04:55:07;11.60;99.90
10873;DHT22;34586;53.616;10.032;2022-11-04T04:57:33;11.60;99.90
10873;DHT22;34586;53.616;10.032;2022-11-04T04:59:59;11.60;99.90
10873;DHT22;34586;53.616;10.032;2022-11-04T05:02:25;11.60;99.90
10873;DHT22;34586;53.616;10.032;2022-11-04T05:04:51;11.60;99.90
10873;DHT22;34586;53.616;10.032;2022-11-04T05:07:17;12.40;99.90
10873;DHT22;34586;53.616;10.032;2022-11-04T05:09:42;11.70;99.90
10873;DHT22;34586;53.616;10.032;2022-11-04T05:12:10;11.70;99.90
10873;DHT22;34586;53.616;10.032;2022-11-04T05:14:35;11.70;99.90
10873;DHT22;34586;53.616;10.032;2022-11-04T05:17:02;11.70;99.90
10873;DHT22;34586;53.616;10.032;2022-11-04T05:19:29;11.70;99.90
10873;DHT22;34586;53.616;10.032;2022-11-04T05:21:54;11.70;96.30
10873;DHT22;34586;53.616;10.032;2022-11-04T05:24:20;11.70;67.90
10873;DHT22;34586;53.616;10.032;2022-11-04T05:26:46;11.70;88.50
10873;DHT22;34586;53.616;10.032;2022-11-04T05:29:11;11.70;93.80
10873;DHT22;34586;53.616;10.032;2022-11-04T05:31:39;11.70;83.70
10873;DHT22;34586;53.616;10.032;2022-11-04T05:34:04;11.70;53.10
10873;DHT22;34586;53.616;10.032;2022-11-04T05:36:31;11.60;59.30
10873;DHT22;34586;53.616;10.032;2022-11-04T05:38:59;11.80;29.40
10873;DHT22;34586;53.616;10.032;2022-11-04T05:41:25;11.80;53.60
10873;DHT22;34586;53.616;10.032;2022-11-04T05:44:02;11.80;48.00
10873;DHT22;34586;53.616;10.032;2022-11-04T05:46:30;11.80;34.10
10873;DHT22;34586;53.616;10.032;2022-11-04T05:48:56;11.70;14.70
10873;DHT22;34586;53.616;10.032;2022-11-04T05:51:24;11.80;1.20
10873;DHT22;34586;53.616;10.032;2022-11-04T05:53:50;11.80;22.80
10873;DHT22;34586;53.616;10.032;2022-11-04T05:56:16;11.70;24.70
10873;DHT22;34586;53.616;10.032;2022-11-04T05:58:42;11.70;27.50
10873;DHT22;34586;53.616;10.032;2022-11-04T06:01:24;11.70;43.10
10873;DHT22;34586;53.616;10.032;2022-11-04T06:03:54;11.70;42.20
10873;DHT22;34586;53.616;10.032;2022-11-04T06:06:21;11.70;29.40
10873;DHT22;34586;53.616;10.032;2022-11-04T06:08:48;11.70;49.90
10873;DHT22;34586;53.616;10.032;2022-11-04T06:11:14;11.80;36.40
10873;DHT22;34586;53.616;10.032;2022-11-04T06:13:40;11.70;39.30
10873;DHT22;34586;53.616;10.032;2022-11-04T06:16:06;11.70;46.20
10873;DHT22;34586;53.616;10.032;2022-11-04T06:18:31;11.80;21.20
10873;DHT22;34586;53.616;10.032;2022-11-04T06:21:23;11.80;1.00
10873;DHT22;34586;53.616;10.032;2022-11-04T06:23:50;11.70;33.10
10873;DHT22;34586;53.616;10.032;2022-11-04T06:26:17;11.80;17.90
10873;DHT22;34586;53.616;10.032;2022-11-04T06:28:43;11.80;24.90
10873;DHT22;34586;53.616;10.032;2022-11-04T06:31:10;11.80;8.30
10873;DHT22;34586;53.616;10.032;2022-11-04T06:33:37;11.70;20.90
10873;DHT22;34586;53.616;10.032;2022-11-04T06:36:04;11.70;47.60
10873;DHT22;34586;53.616;10.032;2022-11-04T06:38:31;11.70;50.60
10873;DHT22;34586;53.616;10.032;2022-11-04T06:40:58;11.60;71.20
10873;DHT22;34586;53.616;10.032;2022-11-04T06:43:23;11.60;63.40
10873;DHT22;34586;53.616;10.032;2022-11-04T06:45:56;11.70;32.10
10873;DHT22;34586;53.616;10.032;2022-11-04T06:48:22;11.60;36.10
10873;DHT22;34586;53.616;10.032;2022-11-04T06:50:48;11.60;39.50
10873;DHT22;34586;53.616;10.032;2022-11-04T06:53:15;11.50;44.90
10873;DHT22;34586;53.616;10.032;2022-11-04T06:55:41;11.40;62.00
10873;DHT22;34586;53.616;10.032;2022-11-04T06:58:08;11.30;75.40
10873;DHT22;34586;53.616;10.032;2022-11-04T07:00:34;11.20;93.90
10873;DHT22;34586;53.616;10.032;2022-11-04T07:03:00;11.30;91.90
10873;DHT22;34586;53.616;10.032;2022-11-04T07:05:25;11.40;99.20
10873;DHT22;34586;53.616;10.032;2022-11-04T07:07:51;11.20;99.90
10873;DHT22;34586;53.616;10.032;2022-11-04T07:10:17;11.50;99.90
10873;DHT22;34586;53.616;10.032;2022-11-04T07:12:43;11.20;99.90
10873;DHT22;34586;53.616;10.032;2022-11-04T07:15:09;11.20;99.90
10873;DHT22;34586;53.616;10.032;2022-11-04T07:17:35;11.20;99.90
10873;DHT22;34586;53.616;10.032;2022-11-04T07:20:01;11.30;99.90
10873;DHT22;34586;53.616;10.032;2022-11-04T07:22:27;11.30;99.90
10873;DHT22;34586;53.616;10.032;2022-11-04T07:24:52;11.60;99.90
10873;DHT22;34586;53.616;10.032;2022-11-04T07:27:18;11.30;99.90
10873;DHT22;34586;53.616;10.032;2022-11-04T07:29:44;11.30;99.90
10873;DHT22;34586;53.616;10.032;2022-11-04T07:32:11;11.30;99.90
10873;DHT22;34586;53.616;10.032;2022-11-04T07:34:36;11.40;99.90
10873;DHT22;34586;53.616;10.032;2022-11-04T07:37:02;11.20;99.90
10873;DHT22;34586;53.616;10.032;2022-11-04T07:39:28;11.20;99.90
10873;DHT22;34586;53.616;10.032;2022-11-04T07:41:56;11.20;99.90
10873;DHT22;34586;53.616;10.032;2022-11-04T07:44:21;11.20;99.90
10873;DHT22;34586;53.616;10.032;2022-11-04T07:46:48;11.10;99.90
10873;DHT22;34586;53.616;10.032;2022-11-04T07:49:14;11.10;99.90
10873;DHT22;34586;53.616;10.032;2022-11-04T07:51:39;11.10;99.90
10873;DHT22;34586;53.616;10.032;2022-11-04T07:54:05;11.20;99.90
10873;DHT22;34586;53.616;10.032;2022-11-04T07:56:31;11.20;99.90
10873;DHT22;34586;53.616;10.032;2022-11-04T07:58:56;11.20;99.90
10873;DHT22;34586;53.616;10.032;2022-11-04T08:01:23;11.50;99.90
10873;DHT22;34586;53.616;10.032;2022-11-04T08:03:50;11.30;99.90
10873;DHT22;34586;53.616;10.032;2022-11-04T08:06:17;11.40;99.90
10873;DHT22;34586;53.616;10.032;2022-11-04T08:08:43;11.40;99.90
10873;DHT22;34586;53.616;10.032;2022-11-04T08:11:12;11.50;95.80
10873;DHT22;34586;53.616;10.032;2022-11-04T08:13:38;11.50;92.60
10873;DHT22;34586;53.616;10.032;2022-11-04T08:16:09;11.60;91.00
10873;DHT22;34586;53.616;10.032;2022-11-04T08:18:36;11.60;95.30
10873;DHT22;34586;53.616;10.032;2022-11-04T08:21:02;11.60;89.50
10873;DHT22;34586;53.616;10.032;2022-11-04T08:23:29;11.60;89.50
10873;DHT22;34586;53.616;10.032;2022-11-04T08:25:55;11.70;63.10
10873;DHT22;34586;53.616;10.032;2022-11-04T08:28:21;11.70;27.70
10873;DHT22;34586;53.616;10.032;2022-11-04T08:31:01;11.70;33.20
10873;DHT22;34586;53.616;10.032;2022-11-04T08:33:28;11.70;25.70
10873;DHT22;34586;53.616;10.032;2022-11-04T08:35:59;11.70;46.10
10873;DHT22;34586;53.616;10.032;2022-11-04T08:38:25;11.70;30.60
10873;DHT22;34586;53.616;10.032;2022-11-04T08:40:51;11.70;44.40
10873;DHT22;34586;53.616;10.032;2022-11-04T08:43:18;11.70;14.40
10873;DHT22;34586;53.616;10.032;2022-11-04T08:45:45;11.80;28.90
10873;DHT22;34586;53.616;10.032;2022-11-04T08:48:12;11.90;20.90
10873;DHT22;34586;53.616;10.032;2022-11-04T08:50:38;11.80;2.60
10873;DHT22;34586;53.616;10.032;2022-11-04T08:53:04;11.90;1.00
10873;DHT22;34586;53.616;10.032;2022-11-04T08:55:30;11.90;1.00
10873;DHT22;34586;53.616;10.032;2022-11-04T08:57:57;11.90;1.00
10873;DHT22;34586;53.616;10.032;2022-11-04T09:00:24;11.90;1.00
10873;DHT22;34586;53.616;10.032;2022-11-04T09:02:50;11.90;1.00
10873;DHT22;34586;53.616;10.032;2022-11-04T09:05:17;11.90;1.00
10873;DHT22;34586;53.616;10.032;2022-11-04T09:07:43;11.90;1.00
10873;DHT22;34586;53.616;10.032;2022-11-04T09:10:10;11.90;1.00
10873;DHT22;34586;53.616;10.032;2022-11-04T09:12:36;11.90;1.00
10873;DHT22;34586;53.616;10.032;2022-11-04T09:15:02;11.90;1.00
10873;DHT22;34586;53.616;10.032;2022-11-04T09:17:30;12.00;1.00
10873;DHT22;34586;53.616;10.032;2022-11-04T09:19:58;12.00;1.00
10873;DHT22;34586;53.616;10.032;2022-11-04T09:22:23;12.00;1.00
10873;DHT22;34586;53.616;10.032;2022-11-04T09:24:49;12.90;1.00
10873;DHT22;34586;53.616;10.032;2022-11-04T09:27:15;12.20;1.00
10873;DHT22;34586;53.616;10.032;2022-11-04T09:29:40;12.30;1.00
10873;DHT22;34586;53.616;10.032;2022-11-04T09:32:07;12.40;1.00
10873;DHT22;34586;53.616;10.032;2022-11-04T09:34:32;12.40;1.00
10873;DHT22;34586;53.616;10.032;2022-11-04T09:36:58;12.40;1.00
10873;DHT22;34586;53.616;10.032;2022-11-04T09:39:24;12.50;1.00
10873;DHT22;34586;53.616;10.032;2022-11-04T09:44:54;12.40;1.00
10873;DHT22;34586;53.616;10.032;2022-11-04T09:47:21;12.20;1.00
10873;DHT22;34586;53.616;10.032;2022-11-04T09:49:50;12.20;1.00
10873;DHT22;34586;53.616;10.032;2022-11-04T09:52:23;12.30;1.00
10873;DHT22;34586;53.616;10.032;2022-11-04T09:55:02;12.30;1.00
10873;DHT22;34586;53.616;10.032;2022-11-04T09:57:31;12.30;1.00
10873;DHT22;34586;53.616;10.032;2022-11-04T09:59:58;12.40;1.00
10873;DHT22;34586;53.616;10.032;2022-11-04T10:02:49;12.50;1.00
10873;DHT22;34586;53.616;10.032;2022-11-04T10:05:27;12.60;1.00
10873;DHT22;34586;53.616;10.032;2022-11-04T10:08:05;12.70;1.00
10873;DHT22;34586;53.616;10.032;2022-11-04T10:24:07;12.20;1.00
10873;DHT22;34586;53.616;10.032;2022-11-04T10:26:43;12.10;1.00
10873;DHT22;34586;53.616;10.032;2022-11-04T10:29:40;12.10;1.00
10873;DHT22;34586;53.616;10.032;2022-11-04T10:32:30;12.10;1.00
10873;DHT22;34586;53.616;10.032;2022-11-04T10:37:47;12.00;1.00
10873;DHT22;34586;53.616;10.032;2022-11-04T10:40:20;12.00;1.00
10873;DHT22;34586;53.616;10.032;2022-11-04T10:42:47;12.00;1.00
10873;DHT22;34586;53.616;10.032;2022-11-04T10:45:14;12.10;1.00
10873;DHT22;34586;53.616;10.032;2022-11-04T10:48:17;12.20;1.00
10873;DHT22;34586;53.616;10.032;2022-11-04T10:50:55;12.20;1.00
10873;DHT22;34586;53.616;10.032;2022-11-04T10:53:26;12.30;1.00
10873;DHT22;34586;53.616;10.032;2022-11-04T10:58:45;12.20;1.00
10873;DHT22;34586;53.616;10.032;2022-11-04T11:01:31;12.20;1.00
10873;DHT22;34586;53.616;10.032;2022-11-04T11:03:58;12.40;1.00
10873;DHT22;34586;53.616;10.032;2022-11-04T11:06:31;12.50;1.00
10873;DHT22;34586;53.616;10.032;2022-11-04T11:11:48;12.70;1.00
10873;DHT22;34586;53.616;10.032;2022-11-04T11:16:56;12.70;1.00
10873;DHT22;34586;53.616;10.032;2022-11-04T11:19:24;12.80;1.00
10873;DHT22;34586;53.616;10.032;2022-11-04T11:21:52;12.90;99.90
10873;DHT22;34586;53.616;10.032;2022-11-04T11:24:24;13.00;99.90
10873;DHT22;34586;53.616;10.032;2022-11-04T11:26:52;13.00;99.90
10873;DHT22;34586;53.616;10.032;2022-11-04T11:29:26;13.00;99.90
10873;DHT22;34586;53.616;10.032;2022-11-04T11:31:54;13.00;99.90
10873;DHT22;34586;53.616;10.032;2022-11-04T11:34:29;13.00;99.90
10873;DHT22;34586;53.616;10.032;2022-11-04T11:36:57;13.20;99.90
10873;DHT22;34586;53.616;10.032;2022-11-04T11:39:25;13.30;74.70
10873;DHT22;34586;53.616;10.032;2022-11-04T11:42:07;13.40;99.90
10873;DHT22;34586;53.616;10.032;2022-11-04T11:44:54;13.30;10.60
10873;DHT22;34586;53.616;10.032;2022-11-04T11:47:34;13.60;1.00
10873;DHT22;34586;53.616;10.032;2022-11-04T11:50:17;13.50;99.90
10873;DHT22;34586;53.616;10.032;2022-11-04T11:52:45;13.50;99.90
10873;DHT22;34586;53.616;10.032;2022-11-04T11:55:27;13.60;1.00
10873;DHT22;34586;53.616;10.032;2022-11-04T12:00:47;13.70;99.90
10873;DHT22;34586;53.616;10.032;2022-11-04T12:11:06;13.60;1.00
10873;DHT22;34586;53.616;10.032;2022-11-04T12:13:47;13.60;1.00
10873;DHT22;34586;53.616;10.032;2022-11-04T12:16:26;13.50;99.90
10873;DHT22;34586;53.616;10.032;2022-11-04T12:21:58;13.50;99.90
10873;DHT22;34586;53.616;10.032;2022-11-04T12:25:05;13.30;1.00
10873;DHT22;34586;53.616;10.032;2022-11-04T12:27:40;13.40;99.90
10873;DHT22;34586;53.616;10.032;2022-11-04T12:30:18;13.50;12.00
10873;DHT22;34586;53.616;10.032;2022-11-04T12:33:03;13.70;1.00
10873;DHT22;34586;53.616;10.032;2022-11-04T12:35:53;13.90;1.00
10873;DHT22;34586;53.616;10.032;2022-11-04T12:43:55;14.30;1.00
10873;DHT22;34586;53.616;10.032;2022-11-04T12:52:36;14.40;1.00
10873;DHT22;34586;53.616;10.032;2022-11-04T12:55:34;14.30;24.10
10873;DHT22;34586;53.616;10.032;2022-11-04T13:01:06;14.00;99.90
10873;DHT22;34586;53.616;10.032;2022-11-04T13:03:50;13.80;1.00
10873;DHT22;34586;53.616;10.032;2022-11-04T13:06:48;13.60;99.90
10873;DHT22;34586;53.616;10.032;2022-11-04T13:09:23;13.60;1.00
10873;DHT22;34586;53.616;10.032;2022-11-04T13:11:58;13.50;1.00
10873;DHT22;34586;53.616;10.032;2022-11-04T13:14:32;13.40;92.30
10873;DHT22;34586;53.616;10.032;2022-11-04T13:17:05;13.30;1.00
10873;DHT22;34586;53.616;10.032;2022-11-04T13:19:43;13.20;1.00
10873;DHT22;34586;53.616;10.032;2022-11-04T13:22:15;13.30;99.90
10873;DHT22;34586;53.616;10.032;2022-11-04T13:24:55;13.20;1.00
10873;DHT22;34586;53.616;10.032;2022-11-04T13:27:36;13.30;31.10
10873;DHT22;34586;53.616;10.032;2022-11-04T13:30:31;13.30;99.90
10873;DHT22;34586;53.616;10.032;2022-11-04T13:33:11;13.40;99.90
10873;DHT22;34586;53.616;10.032;2022-11-04T13:39:02;13.60;77.50
10873;DHT22;34586;53.616;10.032;2022-11-04T13:44:45;13.70;1.00
10873;DHT22;34586;53.616;10.032;2022-11-04T13:47:17;13.60;99.90
10873;DHT22;34586;53.616;10.032;2022-11-04T13:49:52;13.90;99.90
10873;DHT22;34586;53.616;10.032;2022-11-04T13:52:23;13.70;1.00
10873;DHT22;34586;53.616;10.032;2022-11-04T13:54:57;13.60;1.00
10873;DHT22;34586;53.616;10.032;2022-11-04T13:57:28;13.90;1.00
10873;DHT22;34586;53.616;10.032;2022-11-04T14:02:59;13.80;1.00
10873;DHT22;34586;53.616;10.032;2022-11-04T14:16:08;13.40;1.00
10873;DHT22;34586;53.616;10.032;2022-11-04T14:18:36;13.40;99.90
10873;DHT22;34586;53.616;10.032;2022-11-04T14:23:37;13.30;1.00
10873;DHT22;34586;53.616;10.032;2022-11-04T14:26:06;13.30;1.00
10873;DHT22;34586;53.616;10.032;2022-11-04T14:28:32;13.30;1.00
10873;DHT22;34586;53.616;10.032;2022-11-04T14:31:04;13.30;99.90
10873;DHT22;34586;53.616;10.032;2022-11-04T14:33:52;13.20;1.00
10873;DHT22;34586;53.616;10.032;2022-11-04T14:36:36;13.20;99.90
10873;DHT22;34586;53.616;10.032;2022-11-04T14:44:14;13.00;99.90
10873;DHT22;34586;53.616;10.032;2022-11-04T14:46:44;12.90;99.90
10873;DHT22;34586;53.616;10.032;2022-11-04T14:51:53;12.60;1.00
10873;DHT22;34586;53.616;10.032;2022-11-04T14:54:21;12.50;1.00
10873;DHT22;34586;53.616;10.032;2022-11-04T14:56:50;12.40;1.00
10873;DHT22;34586;53.616;10.032;2022-11-04T14:59:24;12.30;1.00
10873;DHT22;34586;53.616;10.032;2022-11-04T15:01:52;12.30;1.00
10873;DHT22;34586;53.616;10.032;2022-11-04T15:04:27;12.30;1.00
10873;DHT22;34586;53.616;10.032;2022-11-04T15:07:02;12.30;1.00
10873;DHT22;34586;53.616;10.032;2022-11-04T15:09:30;12.20;1.00
10873;DHT22;34586;53.616;10.032;2022-11-04T15:14:53;12.10;1.00
10873;DHT22;34586;53.616;10.032;2022-11-04T15:17:20;12.10;1.00
10873;DHT22;34586;53.616;10.032;2022-11-04T15:19:50;12.00;1.00
10873;DHT22;34586;53.616;10.032;2022-11-04T15:22:16;11.90;1.00
10873;DHT22;34586;53.616;10.032;2022-11-04T15:24:42;11.90;8.40
10873;DHT22;34586;53.616;10.032;2022-11-04T15:27:15;11.80;22.80
10873;DHT22;34586;53.616;10.032;2022-11-04T15:29:53;11.70;33.20
10873;DHT22;34586;53.616;10.032;2022-11-04T15:32:18;11.60;53.50
10873;DHT22;34586;53.616;10.032;2022-11-04T15:34:45;11.60;62.40
10873;DHT22;34586;53.616;10.032;2022-11-04T15:37:11;11.50;71.70
10873;DHT22;34586;53.616;10.032;2022-11-04T15:39:50;11.50;59.30
10873;DHT22;34586;53.616;10.032;2022-11-04T15:42:19;11.40;63.30
10873;DHT22;34586;53.616;10.032;2022-11-04T15:53:25;11.40;99.90
10873;DHT22;34586;53.616;10.032;2022-11-04T15:55:50;11.30;99.90
10873;DHT22;34586;53.616;10.032;2022-11-04T15:58:17;11.40;99.90
10873;DHT22;34586;53.616;10.032;2022-11-04T16:00:51;11.40;99.90
10873;DHT22;34586;53.616;10.032;2022-11-04T16:03:18;11.30;99.90
10873;DHT22;34586;53.616;10.032;2022-11-04T16:06:02;11.40;99.90
10873;DHT22;34586;53.616;10.032;2022-11-04T16:08:30;11.40;99.90
10873;DHT22;34586;53.616;10.032;2022-11-04T16:11:12;11.50;99.90
10873;DHT22;34586;53.616;10.032;2022-11-04T16:13:38;11.50;99.90
10873;DHT22;34586;53.616;10.032;2022-11-04T16:18:58;11.50;99.90
10873;DHT22;34586;53.616;10.032;2022-11-04T16:24:37;11.50;99.90
10873;DHT22;34586;53.616;10.032;2022-11-04T16:26:40;11.50;99.90
10873;DHT22;34586;53.616;10.032;2022-11-04T16:29:09;11.40;99.90
10873;DHT22;34586;53.616;10.032;2022-11-04T16:31:37;11.40;99.90
10873;DHT22;34586;53.616;10.032;2022-11-04T16:34:07;11.40;99.90
10873;DHT22;34586;53.616;10.032;2022-11-04T16:36:34;11.30;99.90
10873;DHT22;34586;53.616;10.032;2022-11-04T16:39:03;11.20;99.90
10873;DHT22;34586;53.616;10.032;2022-11-04T16:41:35;11.20;99.90
10873;DHT22;34586;53.616;10.032;2022-11-04T16:44:02;11.10;99.90
10873;DHT22;34586;53.616;10.032;2022-11-04T16:46:28;11.00;99.90
10873;DHT22;34586;53.616;10.032;2022-11-04T16:48:55;10.90;99.90
10873;DHT22;34586;53.616;10.032;2022-11-04T16:51:22;10.90;99.90
10873;DHT22;34586;53.616;10.032;2022-11-04T16:53:53;10.90;99.90
10873;DHT22;34586;53.616;10.032;2022-11-04T16:56:23;10.80;99.90
10873;DHT22;34586;53.616;10.032;2022-11-04T16:58:50;10.70;99.90
10873;DHT22;34586;53.616;10.032;2022-11-04T17:01:16;10.70;99.90
10873;DHT22;34586;53.616;10.032;2022-11-04T17:03:43;10.70;99.90
10873;DHT22;34586;53.616;10.032;2022-11-04T17:06:13;10.60;99.90
10873;DHT22;34586;53.616;10.032;2022-11-04T17:08:40;10.60;99.90
10873;DHT22;34586;53.616;10.032;2022-11-04T17:11:07;10.50;99.90
10873;DHT22;34586;53.616;10.032;2022-11-04T17:13:32;10.40;99.90
10873;DHT22;34586;53.616;10.032;2022-11-04T17:15:58;10.60;99.90
10873;DHT22;34586;53.616;10.032;2022-11-04T17:18:25;10.40;99.90
10873;DHT22;34586;53.616;10.032;2022-11-04T17:20:52;10.30;99.90
10873;DHT22;34586;53.616;10.032;2022-11-04T17:23:20;10.20;99.90
10873;DHT22;34586;53.616;10.032;2022-11-04T17:25:46;10.30;99.90
10873;DHT22;34586;53.616;10.032;2022-11-04T17:28:12;10.30;99.90
10873;DHT22;34586;53.616;10.032;2022-11-04T17:30:41;10.20;99.90
10873;DHT22;34586;53.616;10.032;2022-11-04T17:33:17;10.40;99.90
10873;DHT22;34586;53.616;10.032;2022-11-04T17:35:44;10.20;99.90
10873;DHT22;34586;53.616;10.032;2022-11-04T17:38:13;10.20;99.90
10873;DHT22;34586;53.616;10.032;2022-11-04T17:40:39;10.20;99.90
10873;DHT22;34586;53.616;10.032;2022-11-04T17:43:23;10.20;99.90
10873;DHT22;34586;53.616;10.032;2022-11-04T17:46:08;10.20;99.90
10873;DHT22;34586;53.616;10.032;2022-11-04T17:48:53;10.20;99.90
10873;DHT22;34586;53.616;10.032;2022-11-04T17:51:18;10.20;99.90
10873;DHT22;34586;53.616;10.032;2022-11-04T17:53:45;10.10;99.90
10873;DHT22;34586;53.616;10.032;2022-11-04T17:56:15;10.10;99.90
10873;DHT22;34586;53.616;10.032;2022-11-04T17:58:44;10.00;99.90